sensor_id;sensor_type;location;lat;lon;timestamp;temperature;humidity
490;DHT22;231;48.120;11.576;2023-08-20T00:01:28;21.50;31.80
490;DHT22;231;48.120;11.576;2023-08-20T00:03:56;21.40;33.00
490;DHT22;231;48.120;11.576;2023-08-20T00:06:28;21.30;33.50
490;DHT22;231;48.120;11.576;2023-08-20T00:08:58;21.30;34.40
490;DHT22;231;48.120;11.576;2023-08-20T00:11:30;21.20;34.90
490;DHT22;231;48.120;11.576;2023-08-20T00:13:58;21.10;35.50
490;DHT22;231;48.120;11.576;2023-08-20T00:16:26;21.00;35.70
490;DHT22;231;48.120;11.576;2023-08-20T00:18:53;20.90;36.50
490;DHT22;231;48.120;11.576;2023-08-20T00:21:24;20.80;35.50
490;DHT22;231;48.120;11.576;2023-08-20T00:23:52;20.80;34.70
490;DHT22;231;48.120;11.576;2023-08-20T00:26:20;20.70;32.50
490;DHT22;231;48.120;11.576;2023-08-20T00:28:48;20.70;29.30
490;DHT22;231;48.120;11.576;2023-08-20T00:31:17;20.70;28.50
490;DHT22;231;48.120;11.576;2023-08-20T00:33:44;20.60;28.10
490;DHT22;231;48.120;11.576;2023-08-20T00:36:11;20.70;30.60
490;DHT22;231;48.120;11.576;2023-08-20T00:38:38;20.60;33.40
490;DHT22;231;48.120;11.576;2023-08-20T00:41:05;20.60;34.30
490;DHT22;231;48.120;11.576;2023-08-20T00:43:32;20.60;34.10
490;DHT22;231;48.120;11.576;2023-08-20T00:46:00;20.60;35.00
490;DHT22;231;48.120;11.576;2023-08-20T00:48:27;20.60;35.90
490;DHT22;231;48.120;11.576;2023-08-20T00:50:54;20.50;36.50
490;DHT22;231;48.120;11.576;2023-08-20T00:53:21;20.60;37.40
490;DHT22;231;48.120;11.576;2023-08-20T00:55:48;20.50;37.70
490;DHT22;231;48.120;11.576;2023-08-20T00:58:15;20.50;37.60
490;DHT22;231;48.120;11.576;2023-08-20T01:00:42;20.50;37.00
490;DHT22;231;48.120;11.576;2023-08-20T01:03:10;20.40;34.20
490;DHT22;231;48.120;11.576;2023-08-20T01:05:46;20.40;33.50
490;DHT22;231;48.120;11.576;2023-08-20T01:08:25;20.40;33.60
490;DHT22;231;48.120;11.576;2023-08-20T01:10:58;20.40;32.60
490;DHT22;231;48.120;11.576;2023-08-20T01:13:26;20.40;33.00
490;DHT22;231;48.120;11.576;2023-08-20T01:15:53;20.40;35.50
490;DHT22;231;48.120;11.576;2023-08-20T01:18:23;20.40;36.00
490;DHT22;231;48.120;11.576;2023-08-20T01:21:02;20.40;35.90
490;DHT22;231;48.120;11.576;2023-08-20T01:24:13;20.50;35.10
490;DHT22;231;48.120;11.576;2023-08-20T01:27:07;20.40;33.60
490;DHT22;231;48.120;11.576;2023-08-20T01:29:55;20.40;33.40
490;DHT22;231;48.120;11.576;2023-08-20T01:32:35;20.40;32.30
490;DHT22;231;48.120;11.576;2023-08-20T01:35:04;20.40;31.40
490;DHT22;231;48.120;11.576;2023-08-20T01:37:37;20.40;31.10
490;DHT22;231;48.120;11.576;2023-08-20T01:40:07;20.30;31.40
490;DHT22;231;48.120;11.576;2023-08-20T01:42:44;20.30;32.20
490;DHT22;231;48.120;11.576;2023-08-20T01:45:13;20.20;33.50
490;DHT22;231;48.120;11.576;2023-08-20T01:47:45;20.20;33.10
490;DHT22;231;48.120;11.576;2023-08-20T01:50:18;20.10;33.40
490;DHT22;231;48.120;11.576;2023-08-20T01:52:52;20.10;34.20
490;DHT22;231;48.120;11.576;2023-08-20T01:55:19;20.00;35.50
490;DHT22;231;48.120;11.576;2023-08-20T01:57:47;19.90;36.30
490;DHT22;231;48.120;11.576;2023-08-20T02:00:16;19.90;36.90
490;DHT22;231;48.120;11.576;2023-08-20T02:02:44;19.90;37.70
490;DHT22;231;48.120;11.576;2023-08-20T02:05:11;19.80;38.20
490;DHT22;231;48.120;11.576;2023-08-20T02:07:39;19.80;37.40
490;DHT22;231;48.120;11.576;2023-08-20T02:10:09;19.70;37.60
490;DHT22;231;48.120;11.576;2023-08-20T02:12:37;19.70;38.60
490;DHT22;231;48.120;11.576;2023-08-20T02:15:05;19.70;37.40
490;DHT22;231;48.120;11.576;2023-08-20T02:20:31;19.60;36.70
490;DHT22;231;48.120;11.576;2023-08-20T02:22:58;19.60;38.90
490;DHT22;231;48.120;11.576;2023-08-20T02:25:25;19.60;39.40
490;DHT22;231;48.120;11.576;2023-08-20T02:27:52;19.60;39.80
490;DHT22;231;48.120;11.576;2023-08-20T02:30:39;19.50;40.20
490;DHT22;231;48.120;11.576;2023-08-20T02:33:15;19.50;40.20
490;DHT22;231;48.120;11.576;2023-08-20T02:35:42;19.50;40.60
490;DHT22;231;48.120;11.576;2023-08-20T02:38:09;19.40;40.50
490;DHT22;231;48.120;11.576;2023-08-20T02:40:41;19.40;40.80
490;DHT22;231;48.120;11.576;2023-08-20T02:43:08;19.40;40.80
490;DHT22;231;48.120;11.576;2023-08-20T02:45:40;19.30;40.60
490;DHT22;231;48.120;11.576;2023-08-20T02:48:07;19.30;41.30
490;DHT22;231;48.120;11.576;2023-08-20T02:50:36;19.30;41.70
490;DHT22;231;48.120;11.576;2023-08-20T02:53:03;19.30;42.10
490;DHT22;231;48.120;11.576;2023-08-20T02:55:30;19.30;42.20
490;DHT22;231;48.120;11.576;2023-08-20T02:57:57;19.20;42.40
490;DHT22;231;48.120;11.576;2023-08-20T03:00:24;19.20;42.80
490;DHT22;231;48.120;11.576;2023-08-20T03:02:51;19.20;43.20
490;DHT22;231;48.120;11.576;2023-08-20T03:05:18;19.20;43.20
490;DHT22;231;48.120;11.576;2023-08-20T03:07:46;19.20;43.30
490;DHT22;231;48.120;11.576;2023-08-20T03:10:13;19.20;44.00
490;DHT22;231;48.120;11.576;2023-08-20T03:12:39;19.20;44.30
490;DHT22;231;48.120;11.576;2023-08-20T03:15:07;19.10;44.10
490;DHT22;231;48.120;11.576;2023-08-20T03:17:34;19.10;43.90
490;DHT22;231;48.120;11.576;2023-08-20T03:20:01;19.00;43.60
490;DHT22;231;48.120;11.576;2023-08-20T03:22:30;19.00;44.00
490;DHT22;231;48.120;11.576;2023-08-20T03:24:58;19.00;45.00
490;DHT22;231;48.120;11.576;2023-08-20T03:27:25;18.90;45.50
490;DHT22;231;48.120;11.576;2023-08-20T03:29:52;18.90;45.80
490;DHT22;231;48.120;11.576;2023-08-20T03:32:19;18.90;45.40
490;DHT22;231;48.120;11.576;2023-08-20T03:34:46;18.80;45.40
490;DHT22;231;48.120;11.576;2023-08-20T03:37:12;18.80;46.00
490;DHT22;231;48.120;11.576;2023-08-20T03:39:39;18.80;47.00
490;DHT22;231;48.120;11.576;2023-08-20T03:42:07;18.90;46.90
490;DHT22;231;48.120;11.576;2023-08-20T03:44:34;18.90;46.70
490;DHT22;231;48.120;11.576;2023-08-20T03:47:01;18.90;46.10
490;DHT22;231;48.120;11.576;2023-08-20T03:49:28;18.90;46.40
490;DHT22;231;48.120;11.576;2023-08-20T03:51:54;19.00;46.80
490;DHT22;231;48.120;11.576;2023-08-20T03:54:21;19.00;46.40
490;DHT22;231;48.120;11.576;2023-08-20T03:56:48;19.10;46.60
490;DHT22;231;48.120;11.576;2023-08-20T03:59:16;19.10;46.00
490;DHT22;231;48.120;11.576;2023-08-20T04:01:43;19.10;45.20
490;DHT22;231;48.120;11.576;2023-08-20T04:04:10;19.10;44.80
490;DHT22;231;48.120;11.576;2023-08-20T04:06:36;19.10;44.90
490;DHT22;231;48.120;11.576;2023-08-20T04:09:04;19.10;45.00
490;DHT22;231;48.120;11.576;2023-08-20T04:11:31;19.20;45.10
490;DHT22;231;48.120;11.576;2023-08-20T04:13:58;19.20;44.80
490;DHT22;231;48.120;11.576;2023-08-20T04:16:26;19.20;44.70
490;DHT22;231;48.120;11.576;2023-08-20T04:18:52;19.30;46.20
490;DHT22;231;48.120;11.576;2023-08-20T04:21:20;19.30;46.70
490;DHT22;231;48.120;11.576;2023-08-20T04:23:47;19.30;45.70
490;DHT22;231;48.120;11.576;2023-08-20T04:26:13;19.30;45.30
490;DHT22;231;48.120;11.576;2023-08-20T04:28:40;19.30;45.60
490;DHT22;231;48.120;11.576;2023-08-20T04:31:07;19.20;46.30
490;DHT22;231;48.120;11.576;2023-08-20T04:33:35;19.20;47.40
490;DHT22;231;48.120;11.576;2023-08-20T04:36:02;19.20;48.60
490;DHT22;231;48.120;11.576;2023-08-20T04:38:29;19.20;49.70
490;DHT22;231;48.120;11.576;2023-08-20T04:40:55;19.20;50.60
490;DHT22;231;48.120;11.576;2023-08-20T04:43:22;19.10;50.90
490;DHT22;231;48.120;11.576;2023-08-20T04:45:49;19.10;51.00
490;DHT22;231;48.120;11.576;2023-08-20T04:48:16;19.00;50.70
490;DHT22;231;48.120;11.576;2023-08-20T04:50:44;19.00;49.90
490;DHT22;231;48.120;11.576;2023-08-20T04:53:11;19.00;49.20
490;DHT22;231;48.120;11.576;2023-08-20T04:55:38;19.00;48.90
490;DHT22;231;48.120;11.576;2023-08-20T04:58:05;19.00;49.50
490;DHT22;231;48.120;11.576;2023-08-20T05:00:31;19.10;49.20
490;DHT22;231;48.120;11.576;2023-08-20T05:02:58;19.10;48.60
490;DHT22;231;48.120;11.576;2023-08-20T05:05:25;19.20;48.10
490;DHT22;231;48.120;11.576;2023-08-20T05:07:53;19.20;47.50
490;DHT22;231;48.120;11.576;2023-08-20T05:10:20;19.20;46.60
490;DHT22;231;48.120;11.576;2023-08-20T05:12:47;19.30;46.00
490;DHT22;231;48.120;11.576;2023-08-20T05:15:13;19.30;45.30
490;DHT22;231;48.120;11.576;2023-08-20T05:17:40;19.40;44.90
490;DHT22;231;48.120;11.576;2023-08-20T05:20:07;19.40;44.80
490;DHT22;231;48.120;11.576;2023-08-20T05:22:35;19.50;44.60
490;DHT22;231;48.120;11.576;2023-08-20T05:25:03;19.50;44.30
490;DHT22;231;48.120;11.576;2023-08-20T05:27:30;19.60;44.10
490;DHT22;231;48.120;11.576;2023-08-20T05:29:57;19.60;43.70
490;DHT22;231;48.120;11.576;2023-08-20T05:32:24;19.70;43.10
490;DHT22;231;48.120;11.576;2023-08-20T05:34:51;19.80;43.00
490;DHT22;231;48.120;11.576;2023-08-20T05:37:18;19.90;43.00
490;DHT22;231;48.120;11.576;2023-08-20T05:39:44;20.00;42.00
490;DHT22;231;48.120;11.576;2023-08-20T05:42:13;20.10;40.80
490;DHT22;231;48.120;11.576;2023-08-20T05:44:40;20.20;39.80
490;DHT22;231;48.120;11.576;2023-08-20T05:47:07;20.40;38.40
490;DHT22;231;48.120;11.576;2023-08-20T05:49:34;20.50;36.80
490;DHT22;231;48.120;11.576;2023-08-20T05:52:01;20.60;35.40
490;DHT22;231;48.120;11.576;2023-08-20T05:54:28;20.70;34.10
490;DHT22;231;48.120;11.576;2023-08-20T05:56:57;20.90;32.70
490;DHT22;231;48.120;11.576;2023-08-20T05:59:25;21.00;31.30
490;DHT22;231;48.120;11.576;2023-08-20T06:01:52;21.20;29.60
490;DHT22;231;48.120;11.576;2023-08-20T06:04:20;21.40;28.60
490;DHT22;231;48.120;11.576;2023-08-20T06:06:46;21.50;27.60
490;DHT22;231;48.120;11.576;2023-08-20T06:09:13;21.70;26.10
490;DHT22;231;48.120;11.576;2023-08-20T06:11:40;21.90;23.90
490;DHT22;231;48.120;11.576;2023-08-20T06:14:07;22.10;20.10
490;DHT22;231;48.120;11.576;2023-08-20T06:16:35;22.40;17.80
490;DHT22;231;48.120;11.576;2023-08-20T06:19:02;22.70;17.30
490;DHT22;231;48.120;11.576;2023-08-20T06:21:29;23.00;16.40
490;DHT22;231;48.120;11.576;2023-08-20T06:23:56;23.40;14.40
490;DHT22;231;48.120;11.576;2023-08-20T06:26:22;23.80;13.30
490;DHT22;231;48.120;11.576;2023-08-20T06:28:49;24.50;12.20
490;DHT22;231;48.120;11.576;2023-08-20T06:31:16;26.10;9.70
490;DHT22;231;48.120;11.576;2023-08-20T06:33:44;28.00;5.10
490;DHT22;231;48.120;11.576;2023-08-20T06:36:11;30.20;1.00
490;DHT22;231;48.120;11.576;2023-08-20T06:38:38;32.50;1.00
490;DHT22;231;48.120;11.576;2023-08-20T06:41:05;34.60;1.00
490;DHT22;231;48.120;11.576;2023-08-20T06:43:32;36.60;1.00
490;DHT22;231;48.120;11.576;2023-08-20T06:45:59;38.20;1.00
490;DHT22;231;48.120;11.576;2023-08-20T06:48:26;39.30;1.00
490;DHT22;231;48.120;11.576;2023-08-20T06:50:54;40.20;1.00
490;DHT22;231;48.120;11.576;2023-08-20T06:53:20;41.30;1.00
490;DHT22;231;48.120;11.576;2023-08-20T06:55:47;42.40;1.00
490;DHT22;231;48.120;11.576;2023-08-20T06:58:15;43.50;1.00
490;DHT22;231;48.120;11.576;2023-08-20T07:00:41;44.50;1.00
490;DHT22;231;48.120;11.576;2023-08-20T07:03:08;45.20;1.00
490;DHT22;231;48.120;11.576;2023-08-20T07:05:35;46.00;1.00
490;DHT22;231;48.120;11.576;2023-08-20T07:08:04;46.80;1.00
490;DHT22;231;48.120;11.576;2023-08-20T07:10:30;47.40;1.00
490;DHT22;231;48.120;11.576;2023-08-20T07:12:57;48.10;1.00
490;DHT22;231;48.120;11.576;2023-08-20T07:15:24;48.80;1.00
490;DHT22;231;48.120;11.576;2023-08-20T07:17:51;49.50;1.00
490;DHT22;231;48.120;11.576;2023-08-20T07:20:18;50.10;1.00
490;DHT22;231;48.120;11.576;2023-08-20T07:22:45;50.60;1.00
490;DHT22;231;48.120;11.576;2023-08-20T07:25:13;51.00;1.00
490;DHT22;231;48.120;11.576;2023-08-20T07:27:40;51.60;1.00
490;DHT22;231;48.120;11.576;2023-08-20T07:30:09;52.10;1.00
490;DHT22;231;48.120;11.576;2023-08-20T07:32:35;52.40;1.00
490;DHT22;231;48.120;11.576;2023-08-20T07:35:03;52.70;1.00
490;DHT22;231;48.120;11.576;2023-08-20T07:37:29;53.30;1.00
490;DHT22;231;48.120;11.576;2023-08-20T07:39:56;53.80;1.00
490;DHT22;231;48.120;11.576;2023-08-20T07:42:24;54.20;1.00
490;DHT22;231;48.120;11.576;2023-08-20T07:44:51;54.60;1.00
490;DHT22;231;48.120;11.576;2023-08-20T07:47:18;55.00;1.00
490;DHT22;231;48.120;11.576;2023-08-20T07:49:45;55.50;1.00
490;DHT22;231;48.120;11.576;2023-08-20T07:52:11;55.90;1.00
490;DHT22;231;48.120;11.576;2023-08-20T07:54:38;56.20;1.00
490;DHT22;231;48.120;11.576;2023-08-20T07:57:05;56.50;1.00
490;DHT22;231;48.120;11.576;2023-08-20T07:59:33;56.40;1.00
490;DHT22;231;48.120;11.576;2023-08-20T08:02:00;55.90;1.00
490;DHT22;231;48.120;11.576;2023-08-20T08:04:27;55.60;1.00
490;DHT22;231;48.120;11.576;2023-08-20T08:06:54;56.20;1.00
490;DHT22;231;48.120;11.576;2023-08-20T08:09:25;56.50;1.00
490;DHT22;231;48.120;11.576;2023-08-20T08:11:52;56.60;1.00
490;DHT22;231;48.120;11.576;2023-08-20T08:14:20;56.40;1.00
490;DHT22;231;48.120;11.576;2023-08-20T08:16:48;56.50;1.00
490;DHT22;231;48.120;11.576;2023-08-20T08:19:16;56.40;1.00
490;DHT22;231;48.120;11.576;2023-08-20T08:21:58;56.30;1.00
490;DHT22;231;48.120;11.576;2023-08-20T08:24:53;55.80;1.00
490;DHT22;231;48.120;11.576;2023-08-20T08:27:19;55.40;1.00
490;DHT22;231;48.120;11.576;2023-08-20T08:29:47;55.60;1.00
490;DHT22;231;48.120;11.576;2023-08-20T08:32:15;56.10;1.00
490;DHT22;231;48.120;11.576;2023-08-20T08:34:42;55.80;1.00
490;DHT22;231;48.120;11.576;2023-08-20T08:37:08;55.50;1.00
490;DHT22;231;48.120;11.576;2023-08-20T08:39:36;55.10;1.00
490;DHT22;231;48.120;11.576;2023-08-20T08:42:04;54.90;1.00
490;DHT22;231;48.120;11.576;2023-08-20T08:44:33;55.20;1.00
490;DHT22;231;48.120;11.576;2023-08-20T08:47:01;54.80;1.00
490;DHT22;231;48.120;11.576;2023-08-20T08:49:30;54.70;1.00
490;DHT22;231;48.120;11.576;2023-08-20T08:51:57;54.70;1.00
490;DHT22;231;48.120;11.576;2023-08-20T08:54:25;55.00;1.00
490;DHT22;231;48.120;11.576;2023-08-20T08:56:59;54.50;1.00
490;DHT22;231;48.120;11.576;2023-08-20T08:59:27;53.80;1.00
490;DHT22;231;48.120;11.576;2023-08-20T09:01:56;52.70;1.00
490;DHT22;231;48.120;11.576;2023-08-20T09:04:23;51.50;1.00
490;DHT22;231;48.120;11.576;2023-08-20T09:06:52;50.70;1.00
490;DHT22;231;48.120;11.576;2023-08-20T09:09:20;50.60;1.00
490;DHT22;231;48.120;11.576;2023-08-20T09:11:48;51.00;1.00
490;DHT22;231;48.120;11.576;2023-08-20T09:14:28;51.10;1.00
490;DHT22;231;48.120;11.576;2023-08-20T09:17:05;51.40;1.00
490;DHT22;231;48.120;11.576;2023-08-20T09:19:36;51.80;1.00
490;DHT22;231;48.120;11.576;2023-08-20T09:25:08;52.10;1.00
490;DHT22;231;48.120;11.576;2023-08-20T09:27:43;52.20;1.00
490;DHT22;231;48.120;11.576;2023-08-20T09:30:18;53.00;1.00
490;DHT22;231;48.120;11.576;2023-08-20T09:32:44;53.90;1.00
490;DHT22;231;48.120;11.576;2023-08-20T09:35:18;54.70;1.00
490;DHT22;231;48.120;11.576;2023-08-20T09:37:45;55.10;1.00
490;DHT22;231;48.120;11.576;2023-08-20T09:40:13;54.20;1.00
490;DHT22;231;48.120;11.576;2023-08-20T09:42:42;53.80;1.00
490;DHT22;231;48.120;11.576;2023-08-20T09:45:10;54.10;1.00
490;DHT22;231;48.120;11.576;2023-08-20T09:47:42;54.70;1.00
490;DHT22;231;48.120;11.576;2023-08-20T09:50:13;55.30;1.00
490;DHT22;231;48.120;11.576;2023-08-20T09:52:47;54.90;1.00
490;DHT22;231;48.120;11.576;2023-08-20T09:55:21;54.20;1.00
490;DHT22;231;48.120;11.576;2023-08-20T09:57:51;53.00;1.00
490;DHT22;231;48.120;11.576;2023-08-20T10:00:20;52.30;1.00
490;DHT22;231;48.120;11.576;2023-08-20T10:02:48;51.90;1.00
490;DHT22;231;48.120;11.576;2023-08-20T10:05:16;52.10;1.00
490;DHT22;231;48.120;11.576;2023-08-20T10:07:49;52.80;1.00
490;DHT22;231;48.120;11.576;2023-08-20T10:10:33;54.00;1.00
490;DHT22;231;48.120;11.576;2023-08-20T10:13:12;54.90;1.00
490;DHT22;231;48.120;11.576;2023-08-20T10:15:39;55.90;1.00
490;DHT22;231;48.120;11.576;2023-08-20T10:18:11;56.60;1.00
490;DHT22;231;48.120;11.576;2023-08-20T10:20:42;56.40;1.00
490;DHT22;231;48.120;11.576;2023-08-20T10:23:12;56.70;1.00
490;DHT22;231;48.120;11.576;2023-08-20T10:25:42;56.80;1.00
490;DHT22;231;48.120;11.576;2023-08-20T10:28:13;56.60;1.00
490;DHT22;231;48.120;11.576;2023-08-20T10:31:08;56.20;1.00
490;DHT22;231;48.120;11.576;2023-08-20T10:33:36;55.90;1.00
490;DHT22;231;48.120;11.576;2023-08-20T10:36:12;55.80;1.00
490;DHT22;231;48.120;11.576;2023-08-20T10:38:40;55.50;1.00
490;DHT22;231;48.120;11.576;2023-08-20T10:41:11;55.40;1.00
490;DHT22;231;48.120;11.576;2023-08-20T10:43:39;54.70;1.00
490;DHT22;231;48.120;11.576;2023-08-20T10:46:08;54.30;1.00
490;DHT22;231;48.120;11.576;2023-08-20T10:48:40;54.40;1.00
490;DHT22;231;48.120;11.576;2023-08-20T10:51:12;54.70;1.00
490;DHT22;231;48.120;11.576;2023-08-20T10:53:41;54.50;1.00
490;DHT22;231;48.120;11.576;2023-08-20T10:56:14;54.60;1.00
490;DHT22;231;48.120;11.576;2023-08-20T10:58:41;54.90;1.00
490;DHT22;231;48.120;11.576;2023-08-20T11:01:19;54.00;1.00
490;DHT22;231;48.120;11.576;2023-08-20T11:03:47;52.90;1.00
490;DHT22;231;48.120;11.576;2023-08-20T11:06:15;52.20;1.00
490;DHT22;231;48.120;11.576;2023-08-20T11:08:42;51.50;1.00
490;DHT22;231;48.120;11.576;2023-08-20T11:11:09;51.60;1.00
490;DHT22;231;48.120;11.576;2023-08-20T11:13:37;51.90;1.00
490;DHT22;231;48.120;11.576;2023-08-20T11:16:05;52.40;1.00
490;DHT22;231;48.120;11.576;2023-08-20T11:18:33;53.20;1.00
490;DHT22;231;48.120;11.576;2023-08-20T11:21:00;53.40;1.00
490;DHT22;231;48.120;11.576;2023-08-20T11:23:28;53.10;1.00
490;DHT22;231;48.120;11.576;2023-08-20T11:25:55;52.80;1.00
490;DHT22;231;48.120;11.576;2023-08-20T11:28:22;53.00;1.00
490;DHT22;231;48.120;11.576;2023-08-20T11:30:53;52.30;1.00
490;DHT22;231;48.120;11.576;2023-08-20T11:33:21;51.30;1.00
490;DHT22;231;48.120;11.576;2023-08-20T11:35:49;50.80;1.00
490;DHT22;231;48.120;11.576;2023-08-20T11:38:16;51.00;1.00
490;DHT22;231;48.120;11.576;2023-08-20T11:40:43;51.00;1.00
490;DHT22;231;48.120;11.576;2023-08-20T11:43:10;50.70;1.00
490;DHT22;231;48.120;11.576;2023-08-20T11:45:45;50.40;1.00
490;DHT22;231;48.120;11.576;2023-08-20T11:48:14;50.90;1.00
490;DHT22;231;48.120;11.576;2023-08-20T11:50:41;50.90;1.00
490;DHT22;231;48.120;11.576;2023-08-20T11:53:09;50.90;1.00
490;DHT22;231;48.120;11.576;2023-08-20T11:55:38;51.00;1.00
490;DHT22;231;48.120;11.576;2023-08-20T11:58:05;50.80;1.00
490;DHT22;231;48.120;11.576;2023-08-20T12:00:32;51.00;1.00
490;DHT22;231;48.120;11.576;2023-08-20T12:03:01;51.10;1.00
490;DHT22;231;48.120;11.576;2023-08-20T12:05:31;51.00;1.00
490;DHT22;231;48.120;11.576;2023-08-20T12:07:58;50.50;1.00
490;DHT22;231;48.120;11.576;2023-08-20T12:10:26;49.80;1.00
490;DHT22;231;48.120;11.576;2023-08-20T12:12:54;49.80;1.00
490;DHT22;231;48.120;11.576;2023-08-20T12:15:22;49.50;1.00
490;DHT22;231;48.120;11.576;2023-08-20T12:18:00;49.30;1.00
490;DHT22;231;48.120;11.576;2023-08-20T12:20:28;49.40;1.00
490;DHT22;231;48.120;11.576;2023-08-20T12:22:58;49.60;1.00
490;DHT22;231;48.120;11.576;2023-08-20T12:25:25;49.60;1.00
490;DHT22;231;48.120;11.576;2023-08-20T12:27:52;49.10;1.00
490;DHT22;231;48.120;11.576;2023-08-20T12:30:18;48.50;1.00
490;DHT22;231;48.120;11.576;2023-08-20T12:32:46;48.00;1.00
490;DHT22;231;48.120;11.576;2023-08-20T12:35:12;47.50;1.00
490;DHT22;231;48.120;11.576;2023-08-20T12:37:39;47.30;1.00
490;DHT22;231;48.120;11.576;2023-08-20T12:40:09;47.60;1.00
490;DHT22;231;48.120;11.576;2023-08-20T12:42:38;48.00;1.00
490;DHT22;231;48.120;11.576;2023-08-20T12:45:06;48.30;1.00
490;DHT22;231;48.120;11.576;2023-08-20T12:47:33;47.90;1.00
490;DHT22;231;48.120;11.576;2023-08-20T12:50:00;47.20;1.00
490;DHT22;231;48.120;11.576;2023-08-20T12:52:28;45.90;1.00
490;DHT22;231;48.120;11.576;2023-08-20T12:54:55;44.10;1.00
490;DHT22;231;48.120;11.576;2023-08-20T12:57:23;42.40;1.00
490;DHT22;231;48.120;11.576;2023-08-20T12:59:50;41.00;1.00
490;DHT22;231;48.120;11.576;2023-08-20T13:02:18;39.60;1.00
490;DHT22;231;48.120;11.576;2023-08-20T13:04:45;38.60;1.00
490;DHT22;231;48.120;11.576;2023-08-20T13:07:12;37.70;1.00
490;DHT22;231;48.120;11.576;2023-08-20T13:09:40;36.90;1.00
490;DHT22;231;48.120;11.576;2023-08-20T13:12:09;36.20;1.00
490;DHT22;231;48.120;11.576;2023-08-20T13:14:40;35.70;1.00
490;DHT22;231;48.120;11.576;2023-08-20T13:17:08;35.40;1.00
490;DHT22;231;48.120;11.576;2023-08-20T13:19:35;35.10;1.00
490;DHT22;231;48.120;11.576;2023-08-20T13:22:02;34.90;1.00
490;DHT22;231;48.120;11.576;2023-08-20T13:24:29;34.80;1.00
490;DHT22;231;48.120;11.576;2023-08-20T13:26:56;34.60;1.00
490;DHT22;231;48.120;11.576;2023-08-20T13:29:22;34.40;1.00
490;DHT22;231;48.120;11.576;2023-08-20T13:31:50;34.20;1.00
490;DHT22;231;48.120;11.576;2023-08-20T13:34:17;34.10;1.00
490;DHT22;231;48.120;11.576;2023-08-20T13:36:44;34.10;1.00
490;DHT22;231;48.120;11.576;2023-08-20T13:39:12;34.20;1.00
490;DHT22;231;48.120;11.576;2023-08-20T13:41:40;34.20;1.00
490;DHT22;231;48.120;11.576;2023-08-20T13:44:07;34.20;1.00
490;DHT22;231;48.120;11.576;2023-08-20T13:46:34;34.20;1.00
490;DHT22;231;48.120;11.576;2023-08-20T13:49:02;34.10;1.00
490;DHT22;231;48.120;11.576;2023-08-20T13:51:29;34.10;1.00
490;DHT22;231;48.120;11.576;2023-08-20T13:53:56;34.10;1.00
490;DHT22;231;48.120;11.576;2023-08-20T13:56:23;34.10;1.00
490;DHT22;231;48.120;11.576;2023-08-20T13:58:51;34.10;1.00
490;DHT22;231;48.120;11.576;2023-08-20T14:01:17;34.10;1.00
490;DHT22;231;48.120;11.576;2023-08-20T14:03:44;34.10;1.00
490;DHT22;231;48.120;11.576;2023-08-20T14:06:12;34.10;1.00
490;DHT22;231;48.120;11.576;2023-08-20T14:08:39;34.00;1.00
490;DHT22;231;48.120;11.576;2023-08-20T14:11:06;34.00;1.00
490;DHT22;231;48.120;11.576;2023-08-20T14:13:33;33.90;1.00
490;DHT22;231;48.120;11.576;2023-08-20T14:16:00;33.80;1.00
490;DHT22;231;48.120;11.576;2023-08-20T14:18:27;33.80;1.00
490;DHT22;231;48.120;11.576;2023-08-20T14:20:54;33.80;1.00
490;DHT22;231;48.120;11.576;2023-08-20T14:23:22;33.70;1.00
490;DHT22;231;48.120;11.576;2023-08-20T14:25:49;33.70;1.00
490;DHT22;231;48.120;11.576;2023-08-20T14:28:16;33.80;1.00
490;DHT22;231;48.120;11.576;2023-08-20T14:30:43;33.80;1.00
490;DHT22;231;48.120;11.576;2023-08-20T14:33:10;33.90;1.00
490;DHT22;231;48.120;11.576;2023-08-20T14:35:37;34.00;1.00
490;DHT22;231;48.120;11.576;2023-08-20T14:38:04;33.90;1.00
490;DHT22;231;48.120;11.576;2023-08-20T14:40:32;33.80;1.00
490;DHT22;231;48.120;11.576;2023-08-20T14:42:59;33.70;1.00
490;DHT22;231;48.120;11.576;2023-08-20T14:45:26;33.70;1.00
490;DHT22;231;48.120;11.576;2023-08-20T14:47:53;33.70;1.00
490;DHT22;231;48.120;11.576;2023-08-20T14:50:20;33.60;1.00
490;DHT22;231;48.120;11.576;2023-08-20T14:52:46;33.60;1.00
490;DHT22;231;48.120;11.576;2023-08-20T14:55:17;33.80;1.00
490;DHT22;231;48.120;11.576;2023-08-20T14:57:45;33.90;1.00
490;DHT22;231;48.120;11.576;2023-08-20T15:00:13;33.90;1.00
490;DHT22;231;48.120;11.576;2023-08-20T15:02:40;34.00;1.00
490;DHT22;231;48.120;11.576;2023-08-20T15:05:07;34.10;1.00
490;DHT22;231;48.120;11.576;2023-08-20T15:07:34;34.10;1.00
490;DHT22;231;48.120;11.576;2023-08-20T15:10:01;34.10;1.00
490;DHT22;231;48.120;11.576;2023-08-20T15:12:28;34.10;1.00
490;DHT22;231;48.120;11.576;2023-08-20T15:14:56;34.00;1.00
490;DHT22;231;48.120;11.576;2023-08-20T15:17:23;33.90;1.00
490;DHT22;231;48.120;11.576;2023-08-20T15:19:50;33.80;1.00
490;DHT22;231;48.120;11.576;2023-08-20T15:22:17;33.70;1.00
490;DHT22;231;48.120;11.576;2023-08-20T15:24:43;33.60;1.00
490;DHT22;231;48.120;11.576;2023-08-20T15:27:10;33.60;1.00
490;DHT22;231;48.120;11.576;2023-08-20T15:29:37;33.70;1.00
490;DHT22;231;48.120;11.576;2023-08-20T15:32:05;33.80;1.00
490;DHT22;231;48.120;11.576;2023-08-20T15:34:32;33.70;1.00
490;DHT22;231;48.120;11.576;2023-08-20T15:36:59;33.70;1.00
490;DHT22;231;48.120;11.576;2023-08-20T15:39:26;33.60;1.00
490;DHT22;231;48.120;11.576;2023-08-20T15:41:53;33.50;1.00
490;DHT22;231;48.120;11.576;2023-08-20T15:44:20;33.50;1.00
490;DHT22;231;48.120;11.576;2023-08-20T15:46:46;33.40;1.00
490;DHT22;231;48.120;11.576;2023-08-20T15:49:15;33.30;1.00
490;DHT22;231;48.120;11.576;2023-08-20T15:51:41;33.30;1.00
490;DHT22;231;48.120;11.576;2023-08-20T15:54:09;33.30;1.00
490;DHT22;231;48.120;11.576;2023-08-20T15:56:37;33.30;1.00
490;DHT22;231;48.120;11.576;2023-08-20T15:59:04;33.40;1.00
490;DHT22;231;48.120;11.576;2023-08-20T16:01:31;33.30;1.00
490;DHT22;231;48.120;11.576;2023-08-20T16:03:59;33.10;1.00
490;DHT22;231;48.120;11.576;2023-08-20T16:06:27;33.00;1.00
490;DHT22;231;48.120;11.576;2023-08-20T16:08:54;33.00;1.00
490;DHT22;231;48.120;11.576;2023-08-20T16:11:20;32.90;1.00
490;DHT22;231;48.120;11.576;2023-08-20T16:13:47;32.80;1.00
490;DHT22;231;48.120;11.576;2023-08-20T16:16:14;32.70;1.00
490;DHT22;231;48.120;11.576;2023-08-20T16:18:41;32.70;1.00
490;DHT22;231;48.120;11.576;2023-08-20T16:21:08;32.80;1.00
490;DHT22;231;48.120;11.576;2023-08-20T16:23:37;32.90;1.00
490;DHT22;231;48.120;11.576;2023-08-20T16:26:03;32.80;1.00
490;DHT22;231;48.120;11.576;2023-08-20T16:28:30;32.70;1.00
490;DHT22;231;48.120;11.576;2023-08-20T16:30:57;32.60;1.00
490;DHT22;231;48.120;11.576;2023-08-20T16:33:25;32.60;1.00
490;DHT22;231;48.120;11.576;2023-08-20T16:35:53;32.50;1.00
490;DHT22;231;48.120;11.576;2023-08-20T16:38:20;32.50;1.00
490;DHT22;231;48.120;11.576;2023-08-20T16:40:49;32.40;1.00